sensor_id;sensor_type;location;lat;lon;timestamp;temperature;humidity
65046;DHT22;54657;52.022;5.534;2023-08-12T00:00:18;22.20;92.20
65046;DHT22;54657;52.022;5.534;2023-08-12T00:02:45;22.10;92.30
65046;DHT22;54657;52.022;5.534;2023-08-12T00:05:12;22.10;92.40
65046;DHT22;54657;52.022;5.534;2023-08-12T00:07:42;22.00;92.50
65046;DHT22;54657;52.022;5.534;2023-08-12T00:10:09;22.00;92.60
65046;DHT22;54657;52.022;5.534;2023-08-12T00:12:35;22.00;92.50
65046;DHT22;54657;52.022;5.534;2023-08-12T00:15:02;22.10;92.50
65046;DHT22;54657;52.022;5.534;2023-08-12T00:17:29;22.10;92.60
65046;DHT22;54657;52.022;5.534;2023-08-12T00:19:55;22.10;92.50
65046;DHT22;54657;52.022;5.534;2023-08-12T00:22:22;22.10;92.50
65046;DHT22;54657;52.022;5.534;2023-08-12T00:24:47;22.10;92.50
65046;DHT22;54657;52.022;5.534;2023-08-12T00:27:13;22.10;92.50
65046;DHT22;54657;52.022;5.534;2023-08-12T00:29:39;22.10;92.50
65046;DHT22;54657;52.022;5.534;2023-08-12T00:32:04;22.10;92.60
65046;DHT22;54657;52.022;5.534;2023-08-12T00:34:30;22.10;92.60
65046;DHT22;54657;52.022;5.534;2023-08-12T00:36:56;22.10;92.60
65046;DHT22;54657;52.022;5.534;2023-08-12T00:39:21;22.10;92.70
65046;DHT22;54657;52.022;5.534;2023-08-12T00:41:48;22.00;92.70
65046;DHT22;54657;52.022;5.534;2023-08-12T00:44:13;22.00;92.70
65046;DHT22;54657;52.022;5.534;2023-08-12T00:46:41;22.00;92.80
65046;DHT22;54657;52.022;5.534;2023-08-12T00:49:06;22.00;92.80
65046;DHT22;54657;52.022;5.534;2023-08-12T00:51:32;22.00;92.80
65046;DHT22;54657;52.022;5.534;2023-08-12T00:53:59;22.00;92.90
65046;DHT22;54657;52.022;5.534;2023-08-12T00:56:26;21.90;93.00
65046;DHT22;54657;52.022;5.534;2023-08-12T00:58:52;21.90;93.10
65046;DHT22;54657;52.022;5.534;2023-08-12T01:01:19;21.90;93.10
65046;DHT22;54657;52.022;5.534;2023-08-12T01:03:45;21.90;93.10
65046;DHT22;54657;52.022;5.534;2023-08-12T01:06:12;21.90;93.20
65046;DHT22;54657;52.022;5.534;2023-08-12T01:08:38;21.90;93.20
65046;DHT22;54657;52.022;5.534;2023-08-12T01:11:26;21.90;93.20
65046;DHT22;54657;52.022;5.534;2023-08-12T01:14:09;21.90;93.50
65046;DHT22;54657;52.022;5.534;2023-08-12T01:16:39;21.80;93.50
65046;DHT22;54657;52.022;5.534;2023-08-12T01:19:10;21.90;93.30
65046;DHT22;54657;52.022;5.534;2023-08-12T01:21:38;21.80;93.40
65046;DHT22;54657;52.022;5.534;2023-08-12T01:24:07;21.80;93.40
65046;DHT22;54657;52.022;5.534;2023-08-12T01:26:33;21.80;93.40
65046;DHT22;54657;52.022;5.534;2023-08-12T01:28:59;21.80;93.40
65046;DHT22;54657;52.022;5.534;2023-08-12T01:31:34;21.80;93.40
65046;DHT22;54657;52.022;5.534;2023-08-12T01:34:12;21.80;93.50
65046;DHT22;54657;52.022;5.534;2023-08-12T01:36:46;21.80;93.50
65046;DHT22;54657;52.022;5.534;2023-08-12T01:39:12;21.80;93.50
65046;DHT22;54657;52.022;5.534;2023-08-12T01:41:38;21.80;93.50
65046;DHT22;54657;52.022;5.534;2023-08-12T01:44:04;21.80;93.50
65046;DHT22;54657;52.022;5.534;2023-08-12T01:46:31;21.80;93.60
65046;DHT22;54657;52.022;5.534;2023-08-12T01:48:56;21.70;93.60
65046;DHT22;54657;52.022;5.534;2023-08-12T01:51:22;21.70;93.60
65046;DHT22;54657;52.022;5.534;2023-08-12T01:53:48;21.70;93.70
65046;DHT22;54657;52.022;5.534;2023-08-12T01:56:13;21.70;93.70
65046;DHT22;54657;52.022;5.534;2023-08-12T01:58:39;21.70;93.70
65046;DHT22;54657;52.022;5.534;2023-08-12T02:01:04;21.70;93.80
65046;DHT22;54657;52.022;5.534;2023-08-12T02:03:30;21.70;93.90
65046;DHT22;54657;52.022;5.534;2023-08-12T02:05:55;21.70;93.90
65046;DHT22;54657;52.022;5.534;2023-08-12T02:08:21;21.70;93.90
65046;DHT22;54657;52.022;5.534;2023-08-12T02:10:47;21.70;93.90
65046;DHT22;54657;52.022;5.534;2023-08-12T02:13:12;21.70;93.90
65046;DHT22;54657;52.022;5.534;2023-08-12T02:15:38;21.80;93.90
65046;DHT22;54657;52.022;5.534;2023-08-12T02:18:03;21.80;93.90
65046;DHT22;54657;52.022;5.534;2023-08-12T02:20:29;21.70;93.90
65046;DHT22;54657;52.022;5.534;2023-08-12T02:22:55;21.70;93.90
65046;DHT22;54657;52.022;5.534;2023-08-12T02:25:20;21.70;94.00
65046;DHT22;54657;52.022;5.534;2023-08-12T02:27:46;21.70;94.10
65046;DHT22;54657;52.022;5.534;2023-08-12T02:30:12;21.70;94.10
65046;DHT22;54657;52.022;5.534;2023-08-12T02:32:37;21.70;94.20
65046;DHT22;54657;52.022;5.534;2023-08-12T02:35:03;21.70;94.20
65046;DHT22;54657;52.022;5.534;2023-08-12T02:37:29;21.70;94.30
65046;DHT22;54657;52.022;5.534;2023-08-12T02:39:54;21.70;94.30
65046;DHT22;54657;52.022;5.534;2023-08-12T02:42:20;21.60;94.40
65046;DHT22;54657;52.022;5.534;2023-08-12T02:44:45;21.60;94.50
65046;DHT22;54657;52.022;5.534;2023-08-12T02:47:11;21.60;94.70
65046;DHT22;54657;52.022;5.534;2023-08-12T02:49:37;21.60;94.50
65046;DHT22;54657;52.022;5.534;2023-08-12T02:52:02;21.70;94.70
65046;DHT22;54657;52.022;5.534;2023-08-12T02:54:28;21.70;94.70
65046;DHT22;54657;52.022;5.534;2023-08-12T02:56:53;21.70;94.70
65046;DHT22;54657;52.022;5.534;2023-08-12T02:59:19;21.70;94.80
65046;DHT22;54657;52.022;5.534;2023-08-12T03:01:45;21.70;94.70
65046;DHT22;54657;52.022;5.534;2023-08-12T03:04:10;21.70;94.80
65046;DHT22;54657;52.022;5.534;2023-08-12T03:06:36;21.70;94.80
65046;DHT22;54657;52.022;5.534;2023-08-12T03:09:02;21.70;94.90
65046;DHT22;54657;52.022;5.534;2023-08-12T03:11:27;21.70;94.90
65046;DHT22;54657;52.022;5.534;2023-08-12T03:13:53;21.70;94.90
65046;DHT22;54657;52.022;5.534;2023-08-12T03:16:19;21.70;94.90
65046;DHT22;54657;52.022;5.534;2023-08-12T03:18:44;21.70;94.90
65046;DHT22;54657;52.022;5.534;2023-08-12T03:21:10;21.70;94.90
65046;DHT22;54657;52.022;5.534;2023-08-12T03:23:37;21.70;94.90
65046;DHT22;54657;52.022;5.534;2023-08-12T03:26:03;21.70;95.00
65046;DHT22;54657;52.022;5.534;2023-08-12T03:28:29;21.70;95.10
65046;DHT22;54657;52.022;5.534;2023-08-12T03:30:55;21.70;95.10
65046;DHT22;54657;52.022;5.534;2023-08-12T03:33:20;21.70;95.10
65046;DHT22;54657;52.022;5.534;2023-08-12T03:35:46;21.70;95.10
65046;DHT22;54657;52.022;5.534;2023-08-12T03:38:13;21.70;95.30
65046;DHT22;54657;52.022;5.534;2023-08-12T03:40:39;21.70;95.30
65046;DHT22;54657;52.022;5.534;2023-08-12T03:43:05;21.70;95.30
65046;DHT22;54657;52.022;5.534;2023-08-12T03:45:31;21.70;95.20
65046;DHT22;54657;52.022;5.534;2023-08-12T03:47:56;21.70;95.30
65046;DHT22;54657;52.022;5.534;2023-08-12T03:50:22;21.70;95.40
65046;DHT22;54657;52.022;5.534;2023-08-12T03:52:47;21.70;95.50
65046;DHT22;54657;52.022;5.534;2023-08-12T03:55:13;21.70;95.50
65046;DHT22;54657;52.022;5.534;2023-08-12T03:57:39;21.60;95.60
65046;DHT22;54657;52.022;5.534;2023-08-12T04:00:05;21.70;95.60
65046;DHT22;54657;52.022;5.534;2023-08-12T04:02:33;21.70;95.70
65046;DHT22;54657;52.022;5.534;2023-08-12T04:04:58;21.70;95.70
65046;DHT22;54657;52.022;5.534;2023-08-12T04:07:24;21.70;95.80
65046;DHT22;54657;52.022;5.534;2023-08-12T04:09:49;21.60;95.80
65046;DHT22;54657;52.022;5.534;2023-08-12T04:12:15;21.60;95.90
65046;DHT22;54657;52.022;5.534;2023-08-12T04:14:41;21.60;95.90
65046;DHT22;54657;52.022;5.534;2023-08-12T04:17:06;21.60;95.90
65046;DHT22;54657;52.022;5.534;2023-08-12T04:19:32;21.60;96.00
65046;DHT22;54657;52.022;5.534;2023-08-12T04:21:57;21.60;96.00
65046;DHT22;54657;52.022;5.534;2023-08-12T04:24:23;21.60;96.00
65046;DHT22;54657;52.022;5.534;2023-08-12T04:26:49;21.60;96.10
65046;DHT22;54657;52.022;5.534;2023-08-12T04:29:14;21.70;96.10
65046;DHT22;54657;52.022;5.534;2023-08-12T04:31:40;21.70;96.10
65046;DHT22;54657;52.022;5.534;2023-08-12T04:34:06;21.70;96.20
65046;DHT22;54657;52.022;5.534;2023-08-12T04:36:32;21.70;96.30
65046;DHT22;54657;52.022;5.534;2023-08-12T04:38:57;21.70;96.20
65046;DHT22;54657;52.022;5.534;2023-08-12T04:41:23;21.60;96.40
65046;DHT22;54657;52.022;5.534;2023-08-12T04:43:49;21.70;96.30
65046;DHT22;54657;52.022;5.534;2023-08-12T04:46:15;21.70;96.30
65046;DHT22;54657;52.022;5.534;2023-08-12T04:48:40;21.70;96.30
65046;DHT22;54657;52.022;5.534;2023-08-12T04:51:06;21.70;96.30
65046;DHT22;54657;52.022;5.534;2023-08-12T04:53:32;21.70;96.40
65046;DHT22;54657;52.022;5.534;2023-08-12T04:55:58;21.70;96.30
65046;DHT22;54657;52.022;5.534;2023-08-12T04:58:23;21.70;96.30
65046;DHT22;54657;52.022;5.534;2023-08-12T05:00:50;21.70;96.40
65046;DHT22;54657;52.022;5.534;2023-08-12T05:03:17;21.70;96.40
65046;DHT22;54657;52.022;5.534;2023-08-12T05:05:43;21.70;96.50
65046;DHT22;54657;52.022;5.534;2023-08-12T05:08:08;21.70;96.50
65046;DHT22;54657;52.022;5.534;2023-08-12T05:10:34;21.70;96.60
65046;DHT22;54657;52.022;5.534;2023-08-12T05:12:59;21.70;96.60
65046;DHT22;54657;52.022;5.534;2023-08-12T05:15:25;21.70;96.60
65046;DHT22;54657;52.022;5.534;2023-08-12T05:17:51;21.60;96.60
65046;DHT22;54657;52.022;5.534;2023-08-12T05:20:16;21.60;96.70
65046;DHT22;54657;52.022;5.534;2023-08-12T05:22:42;21.60;96.70
65046;DHT22;54657;52.022;5.534;2023-08-12T05:25:08;21.60;96.80
65046;DHT22;54657;52.022;5.534;2023-08-12T05:27:34;21.60;96.90
65046;DHT22;54657;52.022;5.534;2023-08-12T05:29:59;21.60;96.90
65046;DHT22;54657;52.022;5.534;2023-08-12T05:32:25;21.60;96.90
65046;DHT22;54657;52.022;5.534;2023-08-12T05:34:52;21.60;97.10
65046;DHT22;54657;52.022;5.534;2023-08-12T05:37:18;21.60;97.00
65046;DHT22;54657;52.022;5.534;2023-08-12T05:39:43;21.50;97.00
65046;DHT22;54657;52.022;5.534;2023-08-12T05:42:09;21.50;97.10
65046;DHT22;54657;52.022;5.534;2023-08-12T05:44:35;21.50;97.30
65046;DHT22;54657;52.022;5.534;2023-08-12T05:47:00;21.40;97.20
65046;DHT22;54657;52.022;5.534;2023-08-12T05:49:26;21.40;97.30
65046;DHT22;54657;52.022;5.534;2023-08-12T05:51:51;21.40;97.40
65046;DHT22;54657;52.022;5.534;2023-08-12T05:54:17;21.40;97.40
65046;DHT22;54657;52.022;5.534;2023-08-12T05:56:42;21.40;97.40
65046;DHT22;54657;52.022;5.534;2023-08-12T05:59:08;21.40;97.40
65046;DHT22;54657;52.022;5.534;2023-08-12T06:01:33;21.40;97.40
65046;DHT22;54657;52.022;5.534;2023-08-12T06:03:59;21.40;97.40
65046;DHT22;54657;52.022;5.534;2023-08-12T06:06:24;21.40;97.30
65046;DHT22;54657;52.022;5.534;2023-08-12T06:08:50;21.40;97.40
65046;DHT22;54657;52.022;5.534;2023-08-12T06:11:16;21.40;97.40
65046;DHT22;54657;52.022;5.534;2023-08-12T06:13:41;21.40;97.40
65046;DHT22;54657;52.022;5.534;2023-08-12T06:16:07;21.40;97.50
65046;DHT22;54657;52.022;5.534;2023-08-12T06:18:34;21.40;97.50
65046;DHT22;54657;52.022;5.534;2023-08-12T06:20:59;21.30;97.60
65046;DHT22;54657;52.022;5.534;2023-08-12T06:23:25;21.30;97.60
65046;DHT22;54657;52.022;5.534;2023-08-12T06:25:50;21.30;97.60
65046;DHT22;54657;52.022;5.534;2023-08-12T06:28:18;21.30;97.60
65046;DHT22;54657;52.022;5.534;2023-08-12T06:30:47;21.30;97.70
65046;DHT22;54657;52.022;5.534;2023-08-12T06:33:14;21.30;97.70
65046;DHT22;54657;52.022;5.534;2023-08-12T06:35:40;21.30;97.70
65046;DHT22;54657;52.022;5.534;2023-08-12T06:38:05;21.20;97.80
65046;DHT22;54657;52.022;5.534;2023-08-12T06:40:31;21.20;97.90
65046;DHT22;54657;52.022;5.534;2023-08-12T06:42:57;21.20;97.90
65046;DHT22;54657;52.022;5.534;2023-08-12T06:45:22;21.20;97.90
65046;DHT22;54657;52.022;5.534;2023-08-12T06:47:48;21.20;97.90
65046;DHT22;54657;52.022;5.534;2023-08-12T06:50:13;21.10;97.90
65046;DHT22;54657;52.022;5.534;2023-08-12T06:52:39;21.20;97.90
65046;DHT22;54657;52.022;5.534;2023-08-12T06:55:05;21.20;98.00
65046;DHT22;54657;52.022;5.534;2023-08-12T06:57:30;21.10;97.90
65046;DHT22;54657;52.022;5.534;2023-08-12T06:59:56;21.20;97.90
65046;DHT22;54657;52.022;5.534;2023-08-12T07:02:22;21.20;97.90
65046;DHT22;54657;52.022;5.534;2023-08-12T07:04:48;21.20;98.10
65046;DHT22;54657;52.022;5.534;2023-08-12T07:07:13;21.10;97.90
65046;DHT22;54657;52.022;5.534;2023-08-12T07:09:39;21.20;97.90
65046;DHT22;54657;52.022;5.534;2023-08-12T07:12:05;21.20;97.90
65046;DHT22;54657;52.022;5.534;2023-08-12T07:14:31;21.20;97.90
65046;DHT22;54657;52.022;5.534;2023-08-12T07:16:56;21.20;97.90
65046;DHT22;54657;52.022;5.534;2023-08-12T07:19:22;21.20;98.10
65046;DHT22;54657;52.022;5.534;2023-08-12T07:21:48;21.30;97.90
65046;DHT22;54657;52.022;5.534;2023-08-12T07:24:13;21.20;97.90
65046;DHT22;54657;52.022;5.534;2023-08-12T07:26:39;21.30;97.90
65046;DHT22;54657;52.022;5.534;2023-08-12T07:29:14;21.30;97.90
65046;DHT22;54657;52.022;5.534;2023-08-12T07:31:55;21.20;98.00
65046;DHT22;54657;52.022;5.534;2023-08-12T07:34:27;21.20;98.30
65046;DHT22;54657;52.022;5.534;2023-08-12T07:36:52;21.20;98.00
65046;DHT22;54657;52.022;5.534;2023-08-12T07:39:18;21.20;98.10
65046;DHT22;54657;52.022;5.534;2023-08-12T07:42:19;21.20;98.10
65046;DHT22;54657;52.022;5.534;2023-08-12T07:44:46;21.20;98.60
65046;DHT22;54657;52.022;5.534;2023-08-12T07:47:11;21.20;98.10
65046;DHT22;54657;52.022;5.534;2023-08-12T07:49:38;21.20;98.20
65046;DHT22;54657;52.022;5.534;2023-08-12T07:52:03;21.20;98.20
65046;DHT22;54657;52.022;5.534;2023-08-12T07:54:32;21.30;98.20
65046;DHT22;54657;52.022;5.534;2023-08-12T07:56:58;21.30;98.10
65046;DHT22;54657;52.022;5.534;2023-08-12T07:59:23;21.40;98.10
65046;DHT22;54657;52.022;5.534;2023-08-12T08:01:55;21.40;98.00
65046;DHT22;54657;52.022;5.534;2023-08-12T08:04:21;21.50;98.20
65046;DHT22;54657;52.022;5.534;2023-08-12T08:06:57;21.40;98.10
65046;DHT22;54657;52.022;5.534;2023-08-12T08:09:22;21.40;98.10
65046;DHT22;54657;52.022;5.534;2023-08-12T08:11:48;21.40;98.20
65046;DHT22;54657;52.022;5.534;2023-08-12T08:14:13;21.30;98.40
65046;DHT22;54657;52.022;5.534;2023-08-12T08:16:39;21.30;98.40
65046;DHT22;54657;52.022;5.534;2023-08-12T08:19:07;21.40;98.40
65046;DHT22;54657;52.022;5.534;2023-08-12T08:21:57;21.40;98.30
65046;DHT22;54657;52.022;5.534;2023-08-12T08:27:47;21.30;99.20
65046;DHT22;54657;52.022;5.534;2023-08-12T08:30:13;21.30;98.50
65046;DHT22;54657;52.022;5.534;2023-08-12T08:33:14;21.30;98.50
65046;DHT22;54657;52.022;5.534;2023-08-12T08:35:39;21.30;99.20
65046;DHT22;54657;52.022;5.534;2023-08-12T08:38:05;21.30;98.70
65046;DHT22;54657;52.022;5.534;2023-08-12T08:40:33;21.30;98.70
65046;DHT22;54657;52.022;5.534;2023-08-12T08:43:02;21.30;98.60
65046;DHT22;54657;52.022;5.534;2023-08-12T08:45:32;21.30;98.80
65046;DHT22;54657;52.022;5.534;2023-08-12T08:47:59;21.30;98.80
65046;DHT22;54657;52.022;5.534;2023-08-12T08:50:30;21.30;98.80
65046;DHT22;54657;52.022;5.534;2023-08-12T08:52:56;21.30;98.90
65046;DHT22;54657;52.022;5.534;2023-08-12T08:55:25;21.30;99.00
65046;DHT22;54657;52.022;5.534;2023-08-12T08:57:50;21.30;99.00
65046;DHT22;54657;52.022;5.534;2023-08-12T09:00:19;21.30;98.90
65046;DHT22;54657;52.022;5.534;2023-08-12T09:02:48;21.30;99.00
65046;DHT22;54657;52.022;5.534;2023-08-12T09:05:15;21.30;99.10
65046;DHT22;54657;52.022;5.534;2023-08-12T09:07:43;21.40;99.10
65046;DHT22;54657;52.022;5.534;2023-08-12T09:10:10;21.40;99.00
65046;DHT22;54657;52.022;5.534;2023-08-12T09:12:37;21.40;99.10
65046;DHT22;54657;52.022;5.534;2023-08-12T09:15:03;21.50;99.10
65046;DHT22;54657;52.022;5.534;2023-08-12T09:17:32;21.60;99.10
65046;DHT22;54657;52.022;5.534;2023-08-12T09:19:59;21.60;99.10
65046;DHT22;54657;52.022;5.534;2023-08-12T09:22:25;21.60;99.10
65046;DHT22;54657;52.022;5.534;2023-08-12T09:24:57;21.60;99.10
65046;DHT22;54657;52.022;5.534;2023-08-12T09:27:24;21.50;99.10
65046;DHT22;54657;52.022;5.534;2023-08-12T09:29:50;21.50;99.10
65046;DHT22;54657;52.022;5.534;2023-08-12T09:32:20;21.30;98.90
65046;DHT22;54657;52.022;5.534;2023-08-12T09:34:53;21.20;99.00
65046;DHT22;54657;52.022;5.534;2023-08-12T09:37:20;21.10;99.00
65046;DHT22;54657;52.022;5.534;2023-08-12T09:39:48;21.00;99.10
65046;DHT22;54657;52.022;5.534;2023-08-12T09:42:15;20.90;99.10
65046;DHT22;54657;52.022;5.534;2023-08-12T09:44:41;20.90;99.20
65046;DHT22;54657;52.022;5.534;2023-08-12T09:47:10;21.00;99.30
65046;DHT22;54657;52.022;5.534;2023-08-12T09:49:42;21.10;99.20
65046;DHT22;54657;52.022;5.534;2023-08-12T09:52:08;21.10;99.50
65046;DHT22;54657;52.022;5.534;2023-08-12T09:54:36;21.10;98.90
65046;DHT22;54657;52.022;5.534;2023-08-12T09:57:05;21.00;98.90
65046;DHT22;54657;52.022;5.534;2023-08-12T09:59:34;21.00;98.70
65046;DHT22;54657;52.022;5.534;2023-08-12T10:02:04;20.90;98.80
65046;DHT22;54657;52.022;5.534;2023-08-12T10:04:39;20.90;98.60
65046;DHT22;54657;52.022;5.534;2023-08-12T10:07:10;20.80;98.60
65046;DHT22;54657;52.022;5.534;2023-08-12T10:09:39;20.80;98.70
65046;DHT22;54657;52.022;5.534;2023-08-12T10:12:05;20.80;98.60
65046;DHT22;54657;52.022;5.534;2023-08-12T10:14:32;20.80;98.60
65046;DHT22;54657;52.022;5.534;2023-08-12T10:16:58;20.80;98.40
65046;DHT22;54657;52.022;5.534;2023-08-12T10:19:25;20.80;98.40
65046;DHT22;54657;52.022;5.534;2023-08-12T10:21:55;20.90;98.80
65046;DHT22;54657;52.022;5.534;2023-08-12T10:24:23;21.10;98.50
65046;DHT22;54657;52.022;5.534;2023-08-12T10:26:50;21.10;98.20
65046;DHT22;54657;52.022;5.534;2023-08-12T10:29:16;21.20;98.40
65046;DHT22;54657;52.022;5.534;2023-08-12T10:31:42;21.30;98.10
65046;DHT22;54657;52.022;5.534;2023-08-12T10:34:21;21.40;97.90
65046;DHT22;54657;52.022;5.534;2023-08-12T10:36:47;21.60;97.80
65046;DHT22;54657;52.022;5.534;2023-08-12T10:39:13;21.60;97.50
65046;DHT22;54657;52.022;5.534;2023-08-12T10:41:50;21.60;97.20
65046;DHT22;54657;52.022;5.534;2023-08-12T10:44:20;21.70;97.20
65046;DHT22;54657;52.022;5.534;2023-08-12T10:46:50;21.80;96.90
65046;DHT22;54657;52.022;5.534;2023-08-12T10:49:19;21.90;96.90
65046;DHT22;54657;52.022;5.534;2023-08-12T11:02:32;22.00;95.80
65046;DHT22;54657;52.022;5.534;2023-08-12T11:05:09;22.10;95.40
65046;DHT22;54657;52.022;5.534;2023-08-12T11:07:57;22.20;95.60
65046;DHT22;54657;52.022;5.534;2023-08-12T11:10:25;22.40;95.60
65046;DHT22;54657;52.022;5.534;2023-08-12T11:15:17;22.40;95.30
65046;DHT22;54657;52.022;5.534;2023-08-12T11:17:46;22.40;95.10
65046;DHT22;54657;52.022;5.534;2023-08-12T11:20:13;22.50;95.20
65046;DHT22;54657;52.022;5.534;2023-08-12T11:22:41;22.60;95.10
65046;DHT22;54657;52.022;5.534;2023-08-12T11:25:08;22.60;94.80
65046;DHT22;54657;52.022;5.534;2023-08-12T11:27:39;22.70;94.50
65046;DHT22;54657;52.022;5.534;2023-08-12T11:30:06;22.90;94.50
65046;DHT22;54657;52.022;5.534;2023-08-12T11:32:32;22.90;94.30
65046;DHT22;54657;52.022;5.534;2023-08-12T11:34:58;23.00;94.10
65046;DHT22;54657;52.022;5.534;2023-08-12T11:37:23;22.90;94.30
65046;DHT22;54657;52.022;5.534;2023-08-12T11:39:52;23.00;93.50
65046;DHT22;54657;52.022;5.534;2023-08-12T11:42:21;23.00;93.60
65046;DHT22;54657;52.022;5.534;2023-08-12T11:44:46;23.10;93.40
65046;DHT22;54657;52.022;5.534;2023-08-12T11:47:12;23.20;93.50
65046;DHT22;54657;52.022;5.534;2023-08-12T11:49:38;23.20;93.20
65046;DHT22;54657;52.022;5.534;2023-08-12T11:52:04;23.30;92.90
65046;DHT22;54657;52.022;5.534;2023-08-12T11:54:30;23.30;93.00
65046;DHT22;54657;52.022;5.534;2023-08-12T11:56:56;23.30;92.70
65046;DHT22;54657;52.022;5.534;2023-08-12T11:59:22;23.30;92.20
65046;DHT22;54657;52.022;5.534;2023-08-12T12:02:15;23.40;92.30
65046;DHT22;54657;52.022;5.534;2023-08-12T12:04:41;23.40;90.60
65046;DHT22;54657;52.022;5.534;2023-08-12T12:07:18;23.40;90.00
65046;DHT22;54657;52.022;5.534;2023-08-12T12:09:43;23.60;90.20
65046;DHT22;54657;52.022;5.534;2023-08-12T12:12:10;23.70;92.00
65046;DHT22;54657;52.022;5.534;2023-08-12T12:14:36;23.80;91.60
65046;DHT22;54657;52.022;5.534;2023-08-12T12:17:07;23.80;91.40
65046;DHT22;54657;52.022;5.534;2023-08-12T12:19:40;23.90;90.70
65046;DHT22;54657;52.022;5.534;2023-08-12T12:22:06;23.80;91.20
65046;DHT22;54657;52.022;5.534;2023-08-12T12:24:50;23.80;91.20
65046;DHT22;54657;52.022;5.534;2023-08-12T12:27:26;23.90;90.60
65046;DHT22;54657;52.022;5.534;2023-08-12T12:29:53;24.00;90.70
65046;DHT22;54657;52.022;5.534;2023-08-12T12:32:19;24.00;90.90
65046;DHT22;54657;52.022;5.534;2023-08-12T12:34:48;24.00;90.80
65046;DHT22;54657;52.022;5.534;2023-08-12T12:37:14;24.10;90.80
65046;DHT22;54657;52.022;5.534;2023-08-12T12:39:46;24.10;90.50
65046;DHT22;54657;52.022;5.534;2023-08-12T12:42:14;24.10;90.40
65046;DHT22;54657;52.022;5.534;2023-08-12T12:44:46;24.10;90.70
65046;DHT22;54657;52.022;5.534;2023-08-12T12:47:17;24.10;90.40
65046;DHT22;54657;52.022;5.534;2023-08-12T13:01:10;24.40;89.50
65046;DHT22;54657;52.022;5.534;2023-08-12T13:03:35;24.40;88.60
65046;DHT22;54657;52.022;5.534;2023-08-12T13:06:01;24.40;88.30
65046;DHT22;54657;52.022;5.534;2023-08-12T13:08:28;24.30;88.40
65046;DHT22;54657;52.022;5.534;2023-08-12T13:10:56;24.30;88.20
65046;DHT22;54657;52.022;5.534;2023-08-12T13:13:21;24.20;88.40
65046;DHT22;54657;52.022;5.534;2023-08-12T13:15:47;24.30;88.30
65046;DHT22;54657;52.022;5.534;2023-08-12T13:18:16;24.30;88.00
65046;DHT22;54657;52.022;5.534;2023-08-12T13:20:41;24.40;87.30
65046;DHT22;54657;52.022;5.534;2023-08-12T13:23:07;24.50;87.40
65046;DHT22;54657;52.022;5.534;2023-08-12T13:25:33;24.60;86.60
65046;DHT22;54657;52.022;5.534;2023-08-12T13:28:00;24.70;86.50
65046;DHT22;54657;52.022;5.534;2023-08-12T13:30:26;24.80;85.90
65046;DHT22;54657;52.022;5.534;2023-08-12T13:32:52;24.90;85.40
65046;DHT22;54657;52.022;5.534;2023-08-12T13:35:21;24.90;84.90
65046;DHT22;54657;52.022;5.534;2023-08-12T13:37:47;24.90;83.60
65046;DHT22;54657;52.022;5.534;2023-08-12T13:40:12;24.90;84.10
65046;DHT22;54657;52.022;5.534;2023-08-12T13:42:41;24.90;84.30
65046;DHT22;54657;52.022;5.534;2023-08-12T13:45:06;24.90;84.40
65046;DHT22;54657;52.022;5.534;2023-08-12T13:47:34;24.90;84.50
65046;DHT22;54657;52.022;5.534;2023-08-12T13:50:00;24.80;83.90
65046;DHT22;54657;52.022;5.534;2023-08-12T13:52:27;24.70;84.10
65046;DHT22;54657;52.022;5.534;2023-08-12T13:54:52;24.60;84.10
65046;DHT22;54657;52.022;5.534;2023-08-12T13:57:18;24.50;83.90
65046;DHT22;54657;52.022;5.534;2023-08-12T13:59:43;24.40;84.20
65046;DHT22;54657;52.022;5.534;2023-08-12T14:02:12;24.40;84.30
65046;DHT22;54657;52.022;5.534;2023-08-12T14:04:38;24.40;83.80
65046;DHT22;54657;52.022;5.534;2023-08-12T14:07:04;24.50;84.30
65046;DHT22;54657;52.022;5.534;2023-08-12T14:09:33;24.50;83.70
65046;DHT22;54657;52.022;5.534;2023-08-12T14:11:59;24.60;83.50
65046;DHT22;54657;52.022;5.534;2023-08-12T14:14:25;24.60;84.00
65046;DHT22;54657;52.022;5.534;2023-08-12T14:16:54;24.60;83.50
65046;DHT22;54657;52.022;5.534;2023-08-12T14:19:20;24.70;83.50
65046;DHT22;54657;52.022;5.534;2023-08-12T14:21:48;24.80;82.30
65046;DHT22;54657;52.022;5.534;2023-08-12T14:24:14;24.80;82.60
65046;DHT22;54657;52.022;5.534;2023-08-12T14:26:40;24.90;81.10
65046;DHT22;54657;52.022;5.534;2023-08-12T14:29:06;24.90;81.00
65046;DHT22;54657;52.022;5.534;2023-08-12T14:31:32;24.90;80.70
65046;DHT22;54657;52.022;5.534;2023-08-12T14:33:58;24.80;80.20
65046;DHT22;54657;52.022;5.534;2023-08-12T14:36:26;24.70;80.20
65046;DHT22;54657;52.022;5.534;2023-08-12T14:38:52;24.70;79.80
65046;DHT22;54657;52.022;5.534;2023-08-12T14:41:17;24.70;80.80
65046;DHT22;54657;52.022;5.534;2023-08-12T14:43:43;24.70;80.60
65046;DHT22;54657;52.022;5.534;2023-08-12T14:46:08;24.60;80.30
65046;DHT22;54657;52.022;5.534;2023-08-12T14:49:25;24.60;79.90
65046;DHT22;54657;52.022;5.534;2023-08-12T14:51:51;24.60;73.40
65046;DHT22;54657;52.022;5.534;2023-08-12T14:54:16;24.60;79.70
65046;DHT22;54657;52.022;5.534;2023-08-12T14:56:42;24.60;79.60
65046;DHT22;54657;52.022;5.534;2023-08-12T14:59:09;24.70;79.10
65046;DHT22;54657;52.022;5.534;2023-08-12T15:01:34;24.70;78.70
65046;DHT22;54657;52.022;5.534;2023-08-12T15:04:00;24.70;78.50
65046;DHT22;54657;52.022;5.534;2023-08-12T15:06:25;24.60;77.90
65046;DHT22;54657;52.022;5.534;2023-08-12T15:08:51;24.60;78.10
65046;DHT22;54657;52.022;5.534;2023-08-12T15:11:17;24.50;77.90
65046;DHT22;54657;52.022;5.534;2023-08-12T15:13:42;24.50;78.20
65046;DHT22;54657;52.022;5.534;2023-08-12T15:16:08;24.50;78.20
65046;DHT22;54657;52.022;5.534;2023-08-12T15:18:36;24.40;78.10
65046;DHT22;54657;52.022;5.534;2023-08-12T15:21:02;24.30;78.20
65046;DHT22;54657;52.022;5.534;2023-08-12T15:23:30;24.30;78.30
65046;DHT22;54657;52.022;5.534;2023-08-12T15:25:56;24.30;78.20
65046;DHT22;54657;52.022;5.534;2023-08-12T15:28:21;24.30;77.90
65046;DHT22;54657;52.022;5.534;2023-08-12T15:30:50;24.20;78.00
65046;DHT22;54657;52.022;5.534;2023-08-12T15:33:16;24.30;77.60
65046;DHT22;54657;52.022;5.534;2023-08-12T15:35:47;24.20;78.10
65046;DHT22;54657;52.022;5.534;2023-08-12T15:38:14;24.20;77.70
65046;DHT22;54657;52.022;5.534;2023-08-12T15:40:40;24.00;78.00
65046;DHT22;54657;52.022;5.534;2023-08-12T15:43:05;24.00;78.20
65046;DHT22;54657;52.022;5.534;2023-08-12T15:45:31;24.00;78.40
65046;DHT22;54657;52.022;5.534;2023-08-12T15:47:57;23.80;78.20
65046;DHT22;54657;52.022;5.534;2023-08-12T15:50:23;23.90;78.60
65046;DHT22;54657;52.022;5.534;2023-08-12T15:52:48;23.90;78.50
65046;DHT22;54657;52.022;5.534;2023-08-12T15:55:14;24.00;78.70
65046;DHT22;54657;52.022;5.534;2023-08-12T15:57:42;24.00;78.40